Latest Coastal Weather Observations for Darwin Harbour

IDD60701

Issued at 9:55 am CST Friday 28 November 2014 (issued every 10 minutes, with the page automatically refreshed every 10 minutes)

About coastal observations | Map of coastal stations | Coastal observations for NT | Marine services | Other Formats
Station Details ID: 014072 Name: DARWIN NTC AWS Lat: -12.47 Lon: 130.85 Height: 0.0 m
Data from the previous 72 hours. | See also: Recent months for locations in Northern Territory
Date/Time
CST
Temp

°C
Wind Pressure Rain
since 9am
mm
Weather Cloud Vis
km
Sea
Height
m
Swell
Dir
 
Speed
knots
Gust
knots
hPa Trend Height
m
Period
s
Dir
28/09:30am 26.5 ENE 3 6 1010.0 - - - - - - - - -
28/09:00am 26.3 E 7 9 1010.0 - - - - - - - - -
28/08:30am 26.5 ESE 3 8 1010.0 - - - - - - - - -
28/08:00am 26.7 E 2 4 1009.2 - - - - - - - - -
28/07:30am 26.0 ESE 6 8 1009.4 - - - - - - - - -
28/07:00am 25.3 ESE 3 5 1008.9 - - - - - - - - -
28/06:30am 25.3 SSE 1 4 1009.1 - - - - - - - - -
28/06:00am 25.0 SSE 1 3 1008.5 - - - - - - - - -
28/05:30am 24.7 E 5 8 1008.1 - - - - - - - - -
28/05:00am 24.7 SE 3 6 1008.2 - - - - - - - - -
28/04:30am 24.3 ENE 6 12 1008.4 - - - - - - - - -
28/04:00am 25.6 NE 11 18 1007.5 - - - - - - - - -
28/03:30am 27.9 WSW 5 7 1007.2 - - - - - - - - -
28/03:00am 27.5 SW 7 9 1007.2 - - - - - - - - -
28/02:30am 27.5 WSW 5 7 1007.6 - - - - - - - - -
28/02:00am 26.9 WSW 5 8 1007.3 - - - - - - - - -
28/01:30am 26.8 WSW 5 8 1007.7 - - - - - - - - -
28/01:00am 26.9 W 6 8 1008.2 - - - - - - - - -
28/12:30am 26.5 W 9 11 1008.4 - - - - - - - - -
28/12:00am 26.5 WSW 11 16 1008.6 - - - - - - - - -
 
Date/Time
CST
Temp

°C
Wind Pressure Rain
since 9am
mm
Weather Cloud Vis
km
Sea
Height
m
Swell
Dir
 
Speed
knots
Gust
knots
hPa Trend Height
m
Period
s
Dir
27/11:30pm 26.8 WSW 9 13 1008.9 - - - - - - - - -
27/11:00pm 27.3 N 2 8 1008.7 - - - - - - - - -
27/10:30pm 29.4 N 5 11 1008.4 - - - - - - - - -
27/10:00pm 29.9 NW 7 13 1008.1 - - - - - - - - -
27/09:30pm 30.0 WNW 9 15 1007.9 - - - - - - - - -
27/09:00pm 30.2 NW 8 14 1007.6 - - - - - - - - -
27/08:30pm 30.3 NW 8 14 1007.2 - - - - - - - - -
27/08:00pm 31.0 NNW 5 9 1006.8 - - - - - - - - -
27/07:30pm 31.6 N 4 8 1006.7 - - - - - - - - -
27/07:00pm 32.2 NNE 5 9 1006.3 - - - - - - - - -
27/06:30pm 32.4 NNE 6 11 1006.0 - - - - - - - - -
27/06:00pm 32.7 N 4 8 1005.6 - - - - - - - - -
27/05:30pm 32.8 NNW 5 10 1005.4 - - - - - - - - -
27/05:00pm 31.9 WNW 5 10 1005.0 - - - - - - - - -
27/04:30pm 31.1 NNW 5 9 1005.0 - - - - - - - - -
27/04:00pm 31.9 NNW 5 10 1005.2 - - - - - - - - -
27/03:30pm 31.5 WNW 7 10 1005.4 - - - - - - - - -
27/03:00pm 31.8 NNW 6 9 1005.7 - - - - - - - - -
27/02:30pm 31.8 W 6 11 1006.0 - - - - - - - - -
27/02:00pm 31.6 WNW 6 10 1006.3 - - - - - - - - -
27/01:30pm 31.4 WNW 8 10 1006.9 - - - - - - - - -
27/01:00pm 31.2 WNW 7 10 1007.2 - - - - - - - - -
27/12:30pm 31.0 WNW 7 10 1007.7 - - - - - - - - -
27/12:00pm 30.3 W 6 9 1008.1 - - - - - - - - -
27/11:30am 31.4 ESE 2 4 1008.3 - - - - - - - - -
27/11:00am 31.1 SSE 1 3 1008.8 - - - - - - - - -
27/10:30am 31.2 ESE 2 4 1009.3 - - - - - - - - -
27/10:00am 30.5 SSE 2 6 1009.5 - - - - - - - - -
27/09:30am 30.5 SE 3 6 1009.5 - - - - - - - - -
27/09:00am 29.3 E 4 7 1009.3 - - - - - - - - -
27/08:30am 28.5 E 6 8 1009.0 - - - - - - - - -
27/08:00am 28.6 E 6 8 1009.0 - - - - - - - - -
27/07:30am 28.7 E 5 8 1008.4 - - - - - - - - -
27/07:00am 28.6 E 5 8 1008.0 - - - - - - - - -
27/06:30am 28.5 E 4 7 1007.8 - - - - - - - - -
27/06:00am 28.2 ENE 4 6 1007.5 - - - - - - - - -
27/05:30am 28.3 NE 3 5 1007.1 - - - - - - - - -
27/05:00am 28.3 E 3 5 1006.8 - - - - - - - - -
27/04:30am 28.4 E 4 7 1006.7 - - - - - - - - -
27/04:00am 28.4 ENE 3 5 1006.5 - - - - - - - - -
27/03:30am 28.6 NNE 2 4 1006.3 - - - - - - - - -
27/03:00am 28.7 NNW 3 5 1006.3 - - - - - - - - -
27/02:30am 28.4 NE 3 6 1006.6 - - - - - - - - -
27/02:00am 28.6 ENE 5 9 1006.8 - - - - - - - - -
27/01:30am 29.1 ENE 4 7 1007.1 - - - - - - - - -
27/01:00am 29.2 NE 2 4 1007.4 - - - - - - - - -
27/12:30am 29.4 N 1 5 1007.7 - - - - - - - - -
27/12:00am 29.2 N 3 5 1008.0 - - - - - - - - -
 
Date/Time
CST
Temp

°C
Wind Pressure Rain
since 9am
mm
Weather Cloud Vis
km
Sea
Height
m
Swell
Dir
 
Speed
knots
Gust
knots
hPa Trend Height
m
Period
s
Dir
26/11:30pm 29.5 N 2 5 1008.0 - - - - - - - - -
26/11:00pm 29.5 N 3 5 1008.1 - - - - - - - - -
26/10:30pm 29.6 NW 2 5 1007.8 - - - - - - - - -
26/10:00pm 29.6 NNW 3 5 1007.6 - - - - - - - - -
26/09:30pm 29.8 NNW 5 9 1007.4 - - - - - - - - -
26/09:00pm 29.6 WNW 5 9 1007.1 - - - - - - - - -
26/08:30pm 29.5 NW 5 9 1006.7 - - - - - - - - -
26/08:00pm 29.6 NNW 6 12 1006.1 - - - - - - - - -
26/07:30pm 29.8 N 6 13 1005.6 - - - - - - - - -
26/07:00pm 30.1 N 6 11 1004.9 - - - - - - - - -
26/06:30pm 30.3 NNE 5 10 1004.9 - - - - - - - - -
26/06:00pm 30.9 NNE 7 13 1004.7 - - - - - - - - -
26/05:30pm 31.6 NE 6 11 1004.6 - - - - - - - - -
26/05:00pm 31.1 SW 1 3 1004.5 - - - - - - - - -
26/04:30pm 30.8 NNW 3 5 1004.7 - - - - - - - - -
26/04:00pm 30.8 ENE 4 9 1004.6 - - - - - - - - -
26/03:30pm 30.1 ENE 6 11 1004.6 - - - - - - - - -
26/03:00pm 29.0 NNE 5 12 1005.0 - - - - - - - - -
26/02:30pm 28.3 NE 7 15 1005.4 - - - - - - - - -
26/02:00pm 28.8 NE 6 11 1005.8 - - - - - - - - -
26/01:30pm 27.6 NNE 12 22 1006.5 - - - - - - - - -
26/01:00pm 30.3 WSW 4 6 1005.9 - - - - - - - - -
26/12:30pm 30.9 S 3 4 1006.7 - - - - - - - - -
26/12:00pm 31.7 SE 2 6 1007.3 - - - - - - - - -
26/11:30am 30.5 ESE 5 6 1007.6 - - - - - - - - -
26/11:00am 30.3 E 5 8 1008.0 - - - - - - - - -
26/10:30am 29.9 E 5 8 1008.3 - - - - - - - - -
26/10:00am 28.9 E 6 9 1008.5 - - - - - - - - -
26/09:30am 28.8 E 6 9 1008.5 - - - - - - - - -
26/09:00am 28.4 E 6 9 1008.5 - - - - - - - - -
26/08:30am 27.4 E 7 10 1008.3 - - - - - - - - -
26/08:00am 27.1 E 8 11 1007.9 - - - - - - - - -
26/07:30am 26.6 ENE 5 8 1007.4 - - - - - - - - -
26/07:00am 26.4 ENE 4 7 1007.1 - - - - - - - - -
26/06:30am 26.3 NE 4 8 1006.6 - - - - - - - - -
26/06:00am 26.6 E 7 11 1006.3 - - - - - - - - -
26/05:30am 26.4 E 8 12 1006.0 - - - - - - - - -
26/05:00am 26.3 ENE 6 11 1005.7 - - - - - - - - -
26/04:30am 26.7 ENE 5 9 1005.6 - - - - - - - - -
26/04:00am 26.6 E 4 6 1005.6 - - - - - - - - -
26/03:30am 26.3 E 8 11 1005.8 - - - - - - - - -
26/03:00am 26.6 E 7 11 1006.0 - - - - - - - - -
26/02:30am 26.9 E 10 13 1006.3 - - - - - - - - -
26/02:00am 27.2 ESE 8 9 1006.4 - - - - - - - - -
26/01:30am 26.9 ESE 8 11 1006.4 - - - - - - - - -
26/01:00am 27.2 SE 7 10 1006.7 - - - - - - - - -
26/12:30am 27.3 SSE 7 10 1007.2 - - - - - - - - -
26/12:00am 27.4 SSE 4 6 1007.4 - - - - - - - - -
 
Date/Time
CST
Temp

°C
Wind Pressure Rain
since 9am
mm
Weather Cloud Vis
km
Sea
Height
m
Swell
Dir
 
Speed
knots
Gust
knots
hPa Trend Height
m
Period
s
Dir
25/11:30pm 27.6 E 1 4 1007.6 - - - - - - - - -
25/11:00pm 27.6 ESE 3 4 1007.6 - - - - - - - - -
25/10:30pm 27.3 E 4 6 1007.5 - - - - - - - - -
25/10:00pm 27.1 ENE 5 7 1007.5 - - - - - - - - -
25/09:30pm 27.3 ENE 1 4 1007.0 - - - - - - - - -
25/09:00pm 27.2 ENE 2 4 1007.0 - - - - - - - - -
25/08:30pm 26.8 NE 1 5 1006.9 - - - - - - - - -
25/08:00pm 26.3 NNE 5 9 1006.5 - - - - - - - - -
25/07:30pm 26.5 NE 5 9 1006.1 - - - - - - - - -
25/07:00pm 26.7 ENE 5 9 1005.8 - - - - - - - - -
25/06:30pm 26.2 ENE 4 7 1005.8 - - - - - - - - -
25/06:00pm 25.5 ENE 7 13 1005.8 - - - - - - - - -
25/05:30pm 26.0 W 3 5 1006.2 - - - - - - - - -
25/05:00pm 25.6 ENE 15 24 1005.7 - - - - - - - - -
25/04:46pm 27.1 NE 6 17 1005.6 - - - - - - - - -
25/04:30pm 32.1 NNW 6 11 1005.2 - - - - - - - - -
25/04:00pm 31.8 NW 7 12 1005.3 - - - - - - - - -
25/03:30pm 31.8 WNW 7 13 1005.1 - - - - - - - - -
25/03:00pm 31.5 W 6 9 1005.7 - - - - - - - - -
25/02:30pm 31.1 WSW 3 5 1005.6 - - - - - - - - -
25/02:00pm 30.6 SW 5 6 1005.6 - - - - - - - - -
25/01:30pm 30.2 SW 6 8 1006.4 - - - - - - - - -
25/01:00pm 29.4 SW 8 10 1007.4 - - - - - - - - -
25/12:30pm 28.9 SSW 7 8 1008.0 - - - - - - - - -
25/12:00pm 28.9 SSW 6 9 1008.3 - - - - - - - - -
25/11:30am 28.8 S 5 7 1008.5 - - - - - - - - -
25/11:00am 28.9 S 1 2 1008.7 - - - - - - - - -
25/10:30am 28.2 SSW 5 6 1008.9 - - - - - - - - -
25/10:00am 28.5 S 4 7 1009.0 - - - - - - - - -

Other Formats:

Comma delimited format used in spreadsheet applications
http://www.bom.gov.au/fwo/IDD60701/IDD60701.95122.axf

JavaScript Object Notation format (JSON) in row-major order
http://www.bom.gov.au/fwo/IDD60701/IDD60701.95122.json